sensor_id;sensor_type;location;lat;lon;timestamp;temperature;humidity
23435;DHT22;11890;45.380;11.028;2022-09-27T00:01:55;19.10;99.90
23435;DHT22;11890;45.380;11.028;2022-09-27T00:04:45;19.10;99.90
23435;DHT22;11890;45.380;11.028;2022-09-27T00:07:25;19.10;99.90
23435;DHT22;11890;45.380;11.028;2022-09-27T00:09:59;19.10;99.90
23435;DHT22;11890;45.380;11.028;2022-09-27T00:12:30;19.20;99.90
23435;DHT22;11890;45.380;11.028;2022-09-27T00:14:58;19.10;99.90
23435;DHT22;11890;45.380;11.028;2022-09-27T00:18:08;19.20;99.90
23435;DHT22;11890;45.380;11.028;2022-09-27T00:21:24;19.10;99.90
23435;DHT22;11890;45.380;11.028;2022-09-27T00:24:39;19.10;99.90
23435;DHT22;11890;45.380;11.028;2022-09-27T00:27:06;19.10;99.90
23435;DHT22;11890;45.380;11.028;2022-09-27T00:29:37;19.10;99.90
23435;DHT22;11890;45.380;11.028;2022-09-27T00:32:04;19.10;99.90
23435;DHT22;11890;45.380;11.028;2022-09-27T00:34:34;19.10;99.90
23435;DHT22;11890;45.380;11.028;2022-09-27T00:37:08;19.10;99.90
23435;DHT22;11890;45.380;11.028;2022-09-27T00:39:39;19.10;99.90
23435;DHT22;11890;45.380;11.028;2022-09-27T00:42:11;19.10;99.90
23435;DHT22;11890;45.380;11.028;2022-09-27T00:45:06;19.00;99.90
23435;DHT22;11890;45.380;11.028;2022-09-27T00:47:40;19.00;99.90
23435;DHT22;11890;45.380;11.028;2022-09-27T00:50:40;19.00;99.90
23435;DHT22;11890;45.380;11.028;2022-09-27T00:56:13;19.00;99.90
23435;DHT22;11890;45.380;11.028;2022-09-27T00:59:10;19.00;99.90
23435;DHT22;11890;45.380;11.028;2022-09-27T01:01:49;19.00;99.90
23435;DHT22;11890;45.380;11.028;2022-09-27T01:04:38;19.00;99.90
23435;DHT22;11890;45.380;11.028;2022-09-27T01:07:08;18.90;99.90
23435;DHT22;11890;45.380;11.028;2022-09-27T01:09:35;18.90;99.90
23435;DHT22;11890;45.380;11.028;2022-09-27T01:12:44;18.90;99.90
23435;DHT22;11890;45.380;11.028;2022-09-27T01:16:08;18.90;99.90
23435;DHT22;11890;45.380;11.028;2022-09-27T01:30:53;18.70;99.90
23435;DHT22;11890;45.380;11.028;2022-09-27T01:35:59;18.70;99.90
23435;DHT22;11890;45.380;11.028;2022-09-27T01:38:56;18.70;99.90
23435;DHT22;11890;45.380;11.028;2022-09-27T01:45:26;18.70;99.90
23435;DHT22;11890;45.380;11.028;2022-09-27T01:48:40;18.70;99.90
23435;DHT22;11890;45.380;11.028;2022-09-27T01:51:42;18.70;99.90
23435;DHT22;11890;45.380;11.028;2022-09-27T01:54:52;18.70;99.90
23435;DHT22;11890;45.380;11.028;2022-09-27T01:58:15;18.80;99.90
23435;DHT22;11890;45.380;11.028;2022-09-27T02:00:55;18.80;99.90
23435;DHT22;11890;45.380;11.028;2022-09-27T02:03:49;18.80;99.90
23435;DHT22;11890;45.380;11.028;2022-09-27T02:07:01;18.80;99.90
23435;DHT22;11890;45.380;11.028;2022-09-27T02:09:56;18.80;99.90
23435;DHT22;11890;45.380;11.028;2022-09-27T02:13:16;18.80;99.90
23435;DHT22;11890;45.380;11.028;2022-09-27T02:16:40;18.80;99.90
23435;DHT22;11890;45.380;11.028;2022-09-27T02:19:49;18.80;99.90
23435;DHT22;11890;45.380;11.028;2022-09-27T02:23:14;18.80;99.90
23435;DHT22;11890;45.380;11.028;2022-09-27T02:26:11;18.80;99.90
23435;DHT22;11890;45.380;11.028;2022-09-27T02:29:26;18.80;99.90
23435;DHT22;11890;45.380;11.028;2022-09-27T02:32:11;18.80;99.90
23435;DHT22;11890;45.380;11.028;2022-09-27T02:34:44;18.80;99.90
23435;DHT22;11890;45.380;11.028;2022-09-27T02:37:30;18.80;99.90
23435;DHT22;11890;45.380;11.028;2022-09-27T02:40:18;18.80;99.90
23435;DHT22;11890;45.380;11.028;2022-09-27T02:43:06;18.80;99.90
23435;DHT22;11890;45.380;11.028;2022-09-27T02:49:03;18.80;99.90
23435;DHT22;11890;45.380;11.028;2022-09-27T02:58:40;18.90;99.90
23435;DHT22;11890;45.380;11.028;2022-09-27T03:05:21;18.80;99.90
23435;DHT22;11890;45.380;11.028;2022-09-27T03:07:58;18.70;99.90
23435;DHT22;11890;45.380;11.028;2022-09-27T03:10:31;18.70;99.90
23435;DHT22;11890;45.380;11.028;2022-09-27T03:12:59;18.70;99.90
23435;DHT22;11890;45.380;11.028;2022-09-27T03:15:26;18.70;99.90
23435;DHT22;11890;45.380;11.028;2022-09-27T03:18:32;18.60;99.90
23435;DHT22;11890;45.380;11.028;2022-09-27T03:21:25;18.70;99.90
23435;DHT22;11890;45.380;11.028;2022-09-27T03:23:52;18.70;99.90
23435;DHT22;11890;45.380;11.028;2022-09-27T03:26:25;18.70;99.90
23435;DHT22;11890;45.380;11.028;2022-09-27T03:29:01;18.70;99.90
23435;DHT22;11890;45.380;11.028;2022-09-27T03:32:05;18.70;99.90
23435;DHT22;11890;45.380;11.028;2022-09-27T03:35:02;18.60;99.90
23435;DHT22;11890;45.380;11.028;2022-09-27T03:37:49;18.60;99.90
23435;DHT22;11890;45.380;11.028;2022-09-27T03:40:17;18.60;99.90
23435;DHT22;11890;45.380;11.028;2022-09-27T03:42:46;18.60;99.90
23435;DHT22;11890;45.380;11.028;2022-09-27T03:45:34;18.60;99.90
23435;DHT22;11890;45.380;11.028;2022-09-27T03:48:21;18.50;99.90
23435;DHT22;11890;45.380;11.028;2022-09-27T03:50:54;18.50;99.90
23435;DHT22;11890;45.380;11.028;2022-09-27T03:53:21;18.40;99.90
23435;DHT22;11890;45.380;11.028;2022-09-27T03:55:56;18.50;99.90
23435;DHT22;11890;45.380;11.028;2022-09-27T03:58:25;18.40;99.90
23435;DHT22;11890;45.380;11.028;2022-09-27T04:01:12;18.40;99.90
23435;DHT22;11890;45.380;11.028;2022-09-27T04:04:15;18.30;99.90
23435;DHT22;11890;45.380;11.028;2022-09-27T04:07:02;18.30;99.90
23435;DHT22;11890;45.380;11.028;2022-09-27T04:09:30;18.30;99.90
23435;DHT22;11890;45.380;11.028;2022-09-27T04:12:00;18.30;99.90
23435;DHT22;11890;45.380;11.028;2022-09-27T04:14:32;18.30;99.90
23435;DHT22;11890;45.380;11.028;2022-09-27T04:17:24;18.20;99.90
23435;DHT22;11890;45.380;11.028;2022-09-27T04:20:23;18.10;99.90
23435;DHT22;11890;45.380;11.028;2022-09-27T04:22:51;18.10;99.90
23435;DHT22;11890;45.380;11.028;2022-09-27T04:25:53;18.20;99.90
23435;DHT22;11890;45.380;11.028;2022-09-27T04:28:40;18.30;99.90
23435;DHT22;11890;45.380;11.028;2022-09-27T04:31:08;18.30;99.90
23435;DHT22;11890;45.380;11.028;2022-09-27T04:34:15;18.30;99.90
23435;DHT22;11890;45.380;11.028;2022-09-27T04:36:43;18.30;99.90
23435;DHT22;11890;45.380;11.028;2022-09-27T04:39:34;18.30;99.90
23435;DHT22;11890;45.380;11.028;2022-09-27T04:42:21;18.30;99.90
23435;DHT22;11890;45.380;11.028;2022-09-27T04:45:10;18.30;99.90
23435;DHT22;11890;45.380;11.028;2022-09-27T04:47:47;18.30;99.90
23435;DHT22;11890;45.380;11.028;2022-09-27T04:50:19;18.40;99.90
23435;DHT22;11890;45.380;11.028;2022-09-27T04:53:15;18.30;99.90
23435;DHT22;11890;45.380;11.028;2022-09-27T04:55:46;18.30;99.90
23435;DHT22;11890;45.380;11.028;2022-09-27T04:58:35;18.30;99.90
23435;DHT22;11890;45.380;11.028;2022-09-27T05:01:11;18.30;99.90
23435;DHT22;11890;45.380;11.028;2022-09-27T05:03:59;18.30;99.90
23435;DHT22;11890;45.380;11.028;2022-09-27T05:06:30;18.30;99.90
23435;DHT22;11890;45.380;11.028;2022-09-27T05:09:09;18.30;99.90
23435;DHT22;11890;45.380;11.028;2022-09-27T05:12:02;18.30;99.90
23435;DHT22;11890;45.380;11.028;2022-09-27T05:15:13;18.20;99.90
23435;DHT22;11890;45.380;11.028;2022-09-27T05:18:16;18.20;99.90
23435;DHT22;11890;45.380;11.028;2022-09-27T05:21:04;18.20;99.90
23435;DHT22;11890;45.380;11.028;2022-09-27T05:23:40;18.20;99.90
23435;DHT22;11890;45.380;11.028;2022-09-27T05:26:29;18.20;99.90
23435;DHT22;11890;45.380;11.028;2022-09-27T05:28:58;18.20;99.90
23435;DHT22;11890;45.380;11.028;2022-09-27T05:31:26;18.20;99.90
23435;DHT22;11890;45.380;11.028;2022-09-27T05:34:20;18.20;99.90
23435;DHT22;11890;45.380;11.028;2022-09-27T05:37:02;18.20;99.90
23435;DHT22;11890;45.380;11.028;2022-09-27T05:39:35;18.20;99.90
23435;DHT22;11890;45.380;11.028;2022-09-27T05:42:03;18.20;99.90
23435;DHT22;11890;45.380;11.028;2022-09-27T05:44:33;18.20;99.90
23435;DHT22;11890;45.380;11.028;2022-09-27T05:47:07;18.30;99.90
23435;DHT22;11890;45.380;11.028;2022-09-27T05:49:57;18.30;99.90
23435;DHT22;11890;45.380;11.028;2022-09-27T05:52:26;18.30;99.90
23435;DHT22;11890;45.380;11.028;2022-09-27T05:55:42;18.30;99.90
23435;DHT22;11890;45.380;11.028;2022-09-27T05:59:19;18.40;99.90
23435;DHT22;11890;45.380;11.028;2022-09-27T06:02:32;18.40;99.90
23435;DHT22;11890;45.380;11.028;2022-09-27T06:06:16;18.30;99.90
23435;DHT22;11890;45.380;11.028;2022-09-27T06:09:00;18.30;99.90
23435;DHT22;11890;45.380;11.028;2022-09-27T06:11:33;18.30;99.90
23435;DHT22;11890;45.380;11.028;2022-09-27T06:14:04;18.40;99.90
23435;DHT22;11890;45.380;11.028;2022-09-27T06:16:55;18.40;99.90
23435;DHT22;11890;45.380;11.028;2022-09-27T06:19:45;18.40;99.90
23435;DHT22;11890;45.380;11.028;2022-09-27T06:22:36;18.40;99.90
23435;DHT22;11890;45.380;11.028;2022-09-27T06:25:04;18.40;99.90
23435;DHT22;11890;45.380;11.028;2022-09-27T06:27:46;18.40;99.90
23435;DHT22;11890;45.380;11.028;2022-09-27T06:30:44;18.40;99.90
23435;DHT22;11890;45.380;11.028;2022-09-27T06:33:57;18.50;99.90
23435;DHT22;11890;45.380;11.028;2022-09-27T06:36:29;18.60;99.90
23435;DHT22;11890;45.380;11.028;2022-09-27T06:38:57;18.60;99.90
23435;DHT22;11890;45.380;11.028;2022-09-27T06:41:54;18.60;99.90
23435;DHT22;11890;45.380;11.028;2022-09-27T06:45:06;18.60;99.90
23435;DHT22;11890;45.380;11.028;2022-09-27T06:48:01;18.70;99.90
23435;DHT22;11890;45.380;11.028;2022-09-27T06:50:49;18.60;99.90
23435;DHT22;11890;45.380;11.028;2022-09-27T06:53:37;18.70;99.90
23435;DHT22;11890;45.380;11.028;2022-09-27T06:56:04;18.70;99.90
23435;DHT22;11890;45.380;11.028;2022-09-27T07:02:49;18.70;99.90
23435;DHT22;11890;45.380;11.028;2022-09-27T07:06:30;18.70;99.90
23435;DHT22;11890;45.380;11.028;2022-09-27T07:09:13;18.80;99.90
23435;DHT22;11890;45.380;11.028;2022-09-27T07:11:43;18.80;99.90
23435;DHT22;11890;45.380;11.028;2022-09-27T07:14:11;18.90;99.90
23435;DHT22;11890;45.380;11.028;2022-09-27T07:16:39;18.90;99.90
23435;DHT22;11890;45.380;11.028;2022-09-27T07:19:13;18.90;99.90
23435;DHT22;11890;45.380;11.028;2022-09-27T07:21:58;18.90;99.90
23435;DHT22;11890;45.380;11.028;2022-09-27T07:24:25;19.00;99.90
23435;DHT22;11890;45.380;11.028;2022-09-27T07:27:22;19.00;99.90
23435;DHT22;11890;45.380;11.028;2022-09-27T07:29:51;19.10;99.90
23435;DHT22;11890;45.380;11.028;2022-09-27T07:32:19;19.10;99.90
23435;DHT22;11890;45.380;11.028;2022-09-27T07:34:56;19.10;99.90
23435;DHT22;11890;45.380;11.028;2022-09-27T07:37:34;19.10;99.90
23435;DHT22;11890;45.380;11.028;2022-09-27T07:40:12;19.20;99.90
23435;DHT22;11890;45.380;11.028;2022-09-27T07:42:40;19.20;99.90
23435;DHT22;11890;45.380;11.028;2022-09-27T07:45:08;19.30;99.90
23435;DHT22;11890;45.380;11.028;2022-09-27T07:47:54;19.30;99.90
23435;DHT22;11890;45.380;11.028;2022-09-27T07:51:02;19.30;99.90
23435;DHT22;11890;45.380;11.028;2022-09-27T07:53:41;19.30;99.90
23435;DHT22;11890;45.380;11.028;2022-09-27T07:56:30;19.40;99.90
23435;DHT22;11890;45.380;11.028;2022-09-27T07:58:58;19.40;99.90
23435;DHT22;11890;45.380;11.028;2022-09-27T08:01:27;19.50;99.90
23435;DHT22;11890;45.380;11.028;2022-09-27T08:03:57;19.50;99.90
23435;DHT22;11890;45.380;11.028;2022-09-27T08:06:44;19.50;99.90
23435;DHT22;11890;45.380;11.028;2022-09-27T08:09:12;19.60;99.90
23435;DHT22;11890;45.380;11.028;2022-09-27T08:11:41;19.60;99.90
23435;DHT22;11890;45.380;11.028;2022-09-27T08:14:16;19.60;99.90
23435;DHT22;11890;45.380;11.028;2022-09-27T08:17:44;19.60;99.90
23435;DHT22;11890;45.380;11.028;2022-09-27T08:21:00;19.70;99.90
23435;DHT22;11890;45.380;11.028;2022-09-27T08:24:47;19.80;99.90
23435;DHT22;11890;45.380;11.028;2022-09-27T08:28:32;19.80;99.90
23435;DHT22;11890;45.380;11.028;2022-09-27T08:32:01;19.90;99.90
23435;DHT22;11890;45.380;11.028;2022-09-27T08:34:43;20.00;99.90
23435;DHT22;11890;45.380;11.028;2022-09-27T08:37:11;20.10;99.90
23435;DHT22;11890;45.380;11.028;2022-09-27T08:39:38;20.20;99.90
23435;DHT22;11890;45.380;11.028;2022-09-27T08:45:10;20.30;99.90
23435;DHT22;11890;45.380;11.028;2022-09-27T08:47:43;20.30;99.90
23435;DHT22;11890;45.380;11.028;2022-09-27T08:50:27;20.40;99.90
23435;DHT22;11890;45.380;11.028;2022-09-27T08:55:55;20.50;99.90
23435;DHT22;11890;45.380;11.028;2022-09-27T08:58:38;20.60;99.90
23435;DHT22;11890;45.380;11.028;2022-09-27T09:01:18;20.60;99.90
23435;DHT22;11890;45.380;11.028;2022-09-27T09:03:55;20.70;99.90
23435;DHT22;11890;45.380;11.028;2022-09-27T09:15:25;20.80;99.90
23435;DHT22;11890;45.380;11.028;2022-09-27T09:24:56;21.10;99.90
23435;DHT22;11890;45.380;11.028;2022-09-27T09:31:09;21.30;99.90
23435;DHT22;11890;45.380;11.028;2022-09-27T09:33:48;21.30;99.90
23435;DHT22;11890;45.380;11.028;2022-09-27T09:36:23;21.40;99.90
23435;DHT22;11890;45.380;11.028;2022-09-27T09:39:21;21.50;99.90
23435;DHT22;11890;45.380;11.028;2022-09-27T09:47:39;21.70;99.90
23435;DHT22;11890;45.380;11.028;2022-09-27T09:50:28;21.70;99.90
23435;DHT22;11890;45.380;11.028;2022-09-27T09:53:22;21.90;99.90
23435;DHT22;11890;45.380;11.028;2022-09-27T09:56:00;22.00;99.90
23435;DHT22;11890;45.380;11.028;2022-09-27T09:58:36;22.30;99.90
23435;DHT22;11890;45.380;11.028;2022-09-27T10:01:26;22.50;99.90
23435;DHT22;11890;45.380;11.028;2022-09-27T10:03:56;22.70;99.90
23435;DHT22;11890;45.380;11.028;2022-09-27T10:06:25;22.90;99.90
23435;DHT22;11890;45.380;11.028;2022-09-27T10:09:16;23.00;99.90
23435;DHT22;11890;45.380;11.028;2022-09-27T10:12:10;23.00;99.90
23435;DHT22;11890;45.380;11.028;2022-09-27T10:14:40;23.10;99.90
23435;DHT22;11890;45.380;11.028;2022-09-27T10:17:15;23.20;99.90
23435;DHT22;11890;45.380;11.028;2022-09-27T10:19:45;23.30;99.90
23435;DHT22;11890;45.380;11.028;2022-09-27T10:24:55;23.50;99.90
23435;DHT22;11890;45.380;11.028;2022-09-27T10:28:08;23.50;99.90
23435;DHT22;11890;45.380;11.028;2022-09-27T10:30:38;23.70;99.90
23435;DHT22;11890;45.380;11.028;2022-09-27T10:33:17;23.90;99.90
23435;DHT22;11890;45.380;11.028;2022-09-27T10:36:26;24.20;99.90
23435;DHT22;11890;45.380;11.028;2022-09-27T10:38:57;24.40;99.90
23435;DHT22;11890;45.380;11.028;2022-09-27T10:41:45;24.50;99.90
23435;DHT22;11890;45.380;11.028;2022-09-27T10:44:47;24.60;99.90
23435;DHT22;11890;45.380;11.028;2022-09-27T10:47:28;24.60;99.90
23435;DHT22;11890;45.380;11.028;2022-09-27T10:50:05;24.90;99.90
23435;DHT22;11890;45.380;11.028;2022-09-27T10:52:48;25.50;99.90
23435;DHT22;11890;45.380;11.028;2022-09-27T10:55:24;28.60;99.90
23435;DHT22;11890;45.380;11.028;2022-09-27T10:57:55;32.30;94.30
23435;DHT22;11890;45.380;11.028;2022-09-27T11:00:28;35.80;81.80
23435;DHT22;11890;45.380;11.028;2022-09-27T11:03:20;34.40;78.40
23435;DHT22;11890;45.380;11.028;2022-09-27T11:05:52;34.30;78.60
23435;DHT22;11890;45.380;11.028;2022-09-27T11:08:32;37.00;72.60
23435;DHT22;11890;45.380;11.028;2022-09-27T11:17:09;32.10;75.60
23435;DHT22;11890;45.380;11.028;2022-09-27T11:20:30;30.60;80.70
23435;DHT22;11890;45.380;11.028;2022-09-27T11:23:26;29.00;85.80
23435;DHT22;11890;45.380;11.028;2022-09-27T11:26:16;27.80;89.80
23435;DHT22;11890;45.380;11.028;2022-09-27T11:36:07;30.10;83.20
23435;DHT22;11890;45.380;11.028;2022-09-27T11:41:51;29.20;88.00
23435;DHT22;11890;45.380;11.028;2022-09-27T11:53:16;29.00;87.60
23435;DHT22;11890;45.380;11.028;2022-09-27T12:11:25;28.40;84.10
23435;DHT22;11890;45.380;11.028;2022-09-27T12:16:56;27.40;86.10
23435;DHT22;11890;45.380;11.028;2022-09-27T12:19:33;27.10;86.20
23435;DHT22;11890;45.380;11.028;2022-09-27T12:22:13;27.00;85.50
23435;DHT22;11890;45.380;11.028;2022-09-27T12:24:45;26.90;89.40
23435;DHT22;11890;45.380;11.028;2022-09-27T12:27:38;26.80;87.30
23435;DHT22;11890;45.380;11.028;2022-09-27T12:30:12;26.60;87.40
23435;DHT22;11890;45.380;11.028;2022-09-27T12:32:56;26.20;89.10
23435;DHT22;11890;45.380;11.028;2022-09-27T12:35:30;26.00;89.70
23435;DHT22;11890;45.380;11.028;2022-09-27T12:38:08;25.90;86.30
23435;DHT22;11890;45.380;11.028;2022-09-27T12:40:56;25.90;85.50
23435;DHT22;11890;45.380;11.028;2022-09-27T12:43:39;26.10;86.90
23435;DHT22;11890;45.380;11.028;2022-09-27T12:52:11;26.00;83.70
23435;DHT22;11890;45.380;11.028;2022-09-27T13:00:56;26.00;86.60
23435;DHT22;11890;45.380;11.028;2022-09-27T13:09:16;25.40;88.10
23435;DHT22;11890;45.380;11.028;2022-09-27T13:14:38;25.20;90.30
23435;DHT22;11890;45.380;11.028;2022-09-27T13:20:38;25.10;90.30
23435;DHT22;11890;45.380;11.028;2022-09-27T13:29:24;24.70;91.40
23435;DHT22;11890;45.380;11.028;2022-09-27T13:35:08;24.90;91.30
23435;DHT22;11890;45.380;11.028;2022-09-27T13:40:40;24.90;90.50
23435;DHT22;11890;45.380;11.028;2022-09-27T13:43:26;24.90;90.50
23435;DHT22;11890;45.380;11.028;2022-09-27T13:46:06;24.90;91.70
23435;DHT22;11890;45.380;11.028;2022-09-27T13:48:56;24.90;91.00
23435;DHT22;11890;45.380;11.028;2022-09-27T13:51:41;24.90;90.40
23435;DHT22;11890;45.380;11.028;2022-09-27T13:54:52;24.80;90.70
23435;DHT22;11890;45.380;11.028;2022-09-27T13:57:57;24.70;90.70
23435;DHT22;11890;45.380;11.028;2022-09-27T14:00:40;24.60;90.70
23435;DHT22;11890;45.380;11.028;2022-09-27T14:03:36;24.60;91.50
23435;DHT22;11890;45.380;11.028;2022-09-27T14:06:27;24.50;92.50
23435;DHT22;11890;45.380;11.028;2022-09-27T14:08:58;24.50;92.10
23435;DHT22;11890;45.380;11.028;2022-09-27T14:11:39;24.40;93.00
23435;DHT22;11890;45.380;11.028;2022-09-27T14:14:19;24.30;93.00
23435;DHT22;11890;45.380;11.028;2022-09-27T14:17:02;24.30;92.40
23435;DHT22;11890;45.380;11.028;2022-09-27T14:19:57;24.30;93.10
23435;DHT22;11890;45.380;11.028;2022-09-27T14:22:25;24.30;91.60
23435;DHT22;11890;45.380;11.028;2022-09-27T14:24:55;24.30;92.30
23435;DHT22;11890;45.380;11.028;2022-09-27T14:27:38;24.40;92.00
23435;DHT22;11890;45.380;11.028;2022-09-27T14:30:28;24.40;91.80
23435;DHT22;11890;45.380;11.028;2022-09-27T14:33:29;24.30;92.10
23435;DHT22;11890;45.380;11.028;2022-09-27T14:36:32;24.20;91.40
23435;DHT22;11890;45.380;11.028;2022-09-27T14:39:40;24.10;91.80
23435;DHT22;11890;45.380;11.028;2022-09-27T14:42:34;24.10;91.30
23435;DHT22;11890;45.380;11.028;2022-09-27T14:45:21;24.10;92.00
23435;DHT22;11890;45.380;11.028;2022-09-27T14:48:30;24.00;92.20
23435;DHT22;11890;45.380;11.028;2022-09-27T14:53:59;23.90;91.60
23435;DHT22;11890;45.380;11.028;2022-09-27T14:56:30;23.80;92.00
23435;DHT22;11890;45.380;11.028;2022-09-27T15:01:32;23.80;91.80
23435;DHT22;11890;45.380;11.028;2022-09-27T15:04:21;23.80;92.90
23435;DHT22;11890;45.380;11.028;2022-09-27T15:07:00;23.80;93.40
23435;DHT22;11890;45.380;11.028;2022-09-27T15:09:30;23.80;92.80
23435;DHT22;11890;45.380;11.028;2022-09-27T15:12:00;23.80;93.40
23435;DHT22;11890;45.380;11.028;2022-09-27T15:14:29;23.70;93.60
23435;DHT22;11890;45.380;11.028;2022-09-27T15:17:00;23.70;93.10
23435;DHT22;11890;45.380;11.028;2022-09-27T15:19:32;23.60;92.50
23435;DHT22;11890;45.380;11.028;2022-09-27T15:22:43;23.50;92.70
23435;DHT22;11890;45.380;11.028;2022-09-27T15:30:38;23.40;94.50
23435;DHT22;11890;45.380;11.028;2022-09-27T15:33:20;23.50;95.50
23435;DHT22;11890;45.380;11.028;2022-09-27T15:35:52;23.50;95.30
23435;DHT22;11890;45.380;11.028;2022-09-27T15:45:59;23.40;97.20
23435;DHT22;11890;45.380;11.028;2022-09-27T15:48:30;23.40;97.20
23435;DHT22;11890;45.380;11.028;2022-09-27T15:50:58;23.40;98.00
23435;DHT22;11890;45.380;11.028;2022-09-27T15:56:05;23.40;97.20
23435;DHT22;11890;45.380;11.028;2022-09-27T15:58:34;23.40;96.30
23435;DHT22;11890;45.380;11.028;2022-09-27T16:01:04;23.40;96.30
23435;DHT22;11890;45.380;11.028;2022-09-27T16:03:33;23.30;96.10
23435;DHT22;11890;45.380;11.028;2022-09-27T16:06:28;23.30;96.40
23435;DHT22;11890;45.380;11.028;2022-09-27T16:08:56;23.30;96.60
23435;DHT22;11890;45.380;11.028;2022-09-27T16:11:23;23.30;96.70
23435;DHT22;11890;45.380;11.028;2022-09-27T16:13:52;23.20;96.60
23435;DHT22;11890;45.380;11.028;2022-09-27T16:16:21;23.20;97.30
23435;DHT22;11890;45.380;11.028;2022-09-27T16:18:49;23.20;97.20
23435;DHT22;11890;45.380;11.028;2022-09-27T16:21:16;23.10;97.40
23435;DHT22;11890;45.380;11.028;2022-09-27T16:23:44;23.10;97.70
23435;DHT22;11890;45.380;11.028;2022-09-27T16:26:11;23.00;97.90
23435;DHT22;11890;45.380;11.028;2022-09-27T16:28:39;23.00;97.60
23435;DHT22;11890;45.380;11.028;2022-09-27T16:31:16;22.90;97.90
23435;DHT22;11890;45.380;11.028;2022-09-27T16:33:47;22.80;98.80
23435;DHT22;11890;45.380;11.028;2022-09-27T16:36:15;22.80;98.70
23435;DHT22;11890;45.380;11.028;2022-09-27T16:38:49;22.80;98.90
23435;DHT22;11890;45.380;11.028;2022-09-27T16:41:18;22.80;98.70
23435;DHT22;11890;45.380;11.028;2022-09-27T16:43:46;22.70;99.30
23435;DHT22;11890;45.380;11.028;2022-09-27T16:46:15;22.70;99.20
23435;DHT22;11890;45.380;11.028;2022-09-27T16:48:46;22.70;99.30
23435;DHT22;11890;45.380;11.028;2022-09-27T16:51:17;22.70;99.30
23435;DHT22;11890;45.380;11.028;2022-09-27T16:54:04;22.60;99.70
23435;DHT22;11890;45.380;11.028;2022-09-27T16:56:35;22.60;99.70
23435;DHT22;11890;45.380;11.028;2022-09-27T16:59:03;22.60;99.80
23435;DHT22;11890;45.380;11.028;2022-09-27T17:01:33;22.50;99.80
23435;DHT22;11890;45.380;11.028;2022-09-27T17:04:00;22.50;99.80
23435;DHT22;11890;45.380;11.028;2022-09-27T17:06:28;22.30;99.90
23435;DHT22;11890;45.380;11.028;2022-09-27T17:09:02;22.30;99.90
23435;DHT22;11890;45.380;11.028;2022-09-27T17:11:32;22.30;99.90
23435;DHT22;11890;45.380;11.028;2022-09-27T17:14:00;22.30;99.90
23435;DHT22;11890;45.380;11.028;2022-09-27T17:16:27;22.30;99.90
23435;DHT22;11890;45.380;11.028;2022-09-27T17:19:48;22.20;99.90
23435;DHT22;11890;45.380;11.028;2022-09-27T17:28:14;22.10;99.90
23435;DHT22;11890;45.380;11.028;2022-09-27T17:31:53;22.10;99.90
23435;DHT22;11890;45.380;11.028;2022-09-27T17:34:22;22.00;99.90
23435;DHT22;11890;45.380;11.028;2022-09-27T17:36:50;22.00;99.90
23435;DHT22;11890;45.380;11.028;2022-09-27T17:39:21;22.00;99.90
23435;DHT22;11890;45.380;11.028;2022-09-27T17:41:57;22.00;99.90
23435;DHT22;11890;45.380;11.028;2022-09-27T17:44:50;22.00;99.90
23435;DHT22;11890;45.380;11.028;2022-09-27T17:47:37;21.90;99.90
23435;DHT22;11890;45.380;11.028;2022-09-27T17:50:38;21.90;99.90
23435;DHT22;11890;45.380;11.028;2022-09-27T17:53:34;21.90;99.90
23435;DHT22;11890;45.380;11.028;2022-09-27T17:57:00;21.80;99.90
23435;DHT22;11890;45.380;11.028;2022-09-27T17:59:50;21.70;99.90
23435;DHT22;11890;45.380;11.028;2022-09-27T18:02:17;21.70;99.90
23435;DHT22;11890;45.380;11.028;2022-09-27T18:04:45;21.60;99.90
23435;DHT22;11890;45.380;11.028;2022-09-27T18:07:20;21.60;99.90
23435;DHT22;11890;45.380;11.028;2022-09-27T18:09:48;21.50;99.90
23435;DHT22;11890;45.380;11.028;2022-09-27T18:12:17;21.50;99.90
23435;DHT22;11890;45.380;11.028;2022-09-27T18:14:44;21.40;99.90
23435;DHT22;11890;45.380;11.028;2022-09-27T18:17:12;21.40;99.90
23435;DHT22;11890;45.380;11.028;2022-09-27T18:19:39;21.50;99.90
23435;DHT22;11890;45.380;11.028;2022-09-27T18:22:07;21.40;99.90
23435;DHT22;11890;45.380;11.028;2022-09-27T18:24:34;21.40;99.90
23435;DHT22;11890;45.380;11.028;2022-09-27T18:27:11;21.40;99.90
23435;DHT22;11890;45.380;11.028;2022-09-27T18:29:45;21.40;99.90
23435;DHT22;11890;45.380;11.028;2022-09-27T18:32:18;21.30;99.90
23435;DHT22;11890;45.380;11.028;2022-09-27T18:34:46;21.30;99.90
23435;DHT22;11890;45.380;11.028;2022-09-27T18:37:13;21.30;99.90
23435;DHT22;11890;45.380;11.028;2022-09-27T18:39:41;21.30;99.90
23435;DHT22;11890;45.380;11.028;2022-09-27T18:42:08;21.20;99.90
23435;DHT22;11890;45.380;11.028;2022-09-27T18:44:36;21.20;99.90
23435;DHT22;11890;45.380;11.028;2022-09-27T18:47:13;21.10;99.90
23435;DHT22;11890;45.380;11.028;2022-09-27T18:49:41;21.10;99.90
23435;DHT22;11890;45.380;11.028;2022-09-27T18:52:09;21.10;99.90
23435;DHT22;11890;45.380;11.028;2022-09-27T18:54:36;21.10;99.90
23435;DHT22;11890;45.380;11.028;2022-09-27T18:57:06;21.00;99.90
23435;DHT22;11890;45.380;11.028;2022-09-27T19:02:47;21.00;99.90
23435;DHT22;11890;45.380;11.028;2022-09-27T19:05:19;21.00;99.90
23435;DHT22;11890;45.380;11.028;2022-09-27T19:07:46;21.00;99.90
23435;DHT22;11890;45.380;11.028;2022-09-27T19:10:14;20.90;99.90
23435;DHT22;11890;45.380;11.028;2022-09-27T19:12:46;20.90;99.90
23435;DHT22;11890;45.380;11.028;2022-09-27T19:15:14;20.90;99.90
23435;DHT22;11890;45.380;11.028;2022-09-27T19:17:41;20.90;99.90
23435;DHT22;11890;45.380;11.028;2022-09-27T19:20:19;20.90;99.90
23435;DHT22;11890;45.380;11.028;2022-09-27T19:22:46;20.90;99.90
23435;DHT22;11890;45.380;11.028;2022-09-27T19:25:14;20.90;99.90
23435;DHT22;11890;45.380;11.028;2022-09-27T19:27:41;20.90;99.90
23435;DHT22;11890;45.380;11.028;2022-09-27T19:30:32;20.90;99.90
23435;DHT22;11890;45.380;11.028;2022-09-27T19:33:00;20.90;99.90
23435;DHT22;11890;45.380;11.028;2022-09-27T19:35:28;20.90;99.90
23435;DHT22;11890;45.380;11.028;2022-09-27T19:38:06;20.90;99.90
23435;DHT22;11890;45.380;11.028;2022-09-27T19:41:05;20.90;99.90
23435;DHT22;11890;45.380;11.028;2022-09-27T19:43:33;20.80;99.90
23435;DHT22;11890;45.380;11.028;2022-09-27T19:46:04;20.80;99.90
23435;DHT22;11890;45.380;11.028;2022-09-27T19:48:57;20.80;99.90
23435;DHT22;11890;45.380;11.028;2022-09-27T19:51:27;20.70;99.90